sensor_id;sensor_type;location;lat;lon;timestamp;pressure;altitude;pressure_sealevel;temperature;humidity
54439;BME280;40347;53.848;27.498;2023-04-27T00:01:18;1006.5;;;5.9;75.4
54439;BME280;40347;53.848;27.498;2023-04-27T00:06:12;1006.6;;;5.6;74.7
54439;BME280;40347;53.848;27.498;2023-04-27T00:11:06;1006.5;;;5.4;75.6
54439;BME280;40347;53.848;27.498;2023-04-27T00:16:06;1006.5;;;5.7;75.7
54439;BME280;40347;53.848;27.498;2023-04-27T00:21:17;1006.7;;;5.8;74.7
54439;BME280;40347;53.848;27.498;2023-04-27T00:26:18;1006.6;;;5.6;74.4
54439;BME280;40347;53.848;27.498;2023-04-27T00:31:06;1006.6;;;5.8;74.7
54439;BME280;40347;53.848;27.498;2023-04-27T00:36:16;1006.7;;;5.7;74.2
54439;BME280;40347;53.848;27.498;2023-04-27T00:41:06;1006.8;;;5.8;74
54439;BME280;40347;53.848;27.498;2023-04-27T00:46:22;1006.8;;;5.5;74.3
54439;BME280;40347;53.848;27.498;2023-04-27T00:51:16;1006.8;;;5.6;74.6
54439;BME280;40347;53.848;27.498;2023-04-27T00:56:40;1006.7;;;5.6;74.6
54439;BME280;40347;53.848;27.498;2023-04-27T01:01:06;1006.8;;;5.7;74.3
54439;BME280;40347;53.848;27.498;2023-04-27T01:06:06;1006.9;;;5.8;74
54439;BME280;40347;53.848;27.498;2023-04-27T01:11:06;1006.8;;;5.8;73.7
54439;BME280;40347;53.848;27.498;2023-04-27T01:16:06;1006.8;;;5.7;73.9
54439;BME280;40347;53.848;27.498;2023-04-27T01:21:16;1006.8;;;5.8;74
54439;BME280;40347;53.848;27.498;2023-04-27T01:26:30;1006.8;;;5.8;73.8
54439;BME280;40347;53.848;27.498;2023-04-27T01:31:13;1006.8;;;5.9;73.6
54439;BME280;40347;53.848;27.498;2023-04-27T01:36:18;1006.7;;;6.1;73.4
54439;BME280;40347;53.848;27.498;2023-04-27T01:41:18;1006.8;;;6.3;73.1
54439;BME280;40347;53.848;27.498;2023-04-27T01:46:07;1006.9;;;6.3;72.4
54439;BME280;40347;53.848;27.498;2023-04-27T01:51:06;1006.9;;;6.2;72.6
54439;BME280;40347;53.848;27.498;2023-04-27T01:56:06;1007;;;5.9;73.2
54439;BME280;40347;53.848;27.498;2023-04-27T02:01:06;1007;;;6;73.8
54439;BME280;40347;53.848;27.498;2023-04-27T02:06:18;1007.1;;;6.2;73.5
54439;BME280;40347;53.848;27.498;2023-04-27T02:11:28;1007.1;;;6.2;72.9
54439;BME280;40347;53.848;27.498;2023-04-27T02:16:28;1007.2;;;6;73.4
54439;BME280;40347;53.848;27.498;2023-04-27T02:21:18;1007.2;;;6;73.6
54439;BME280;40347;53.848;27.498;2023-04-27T02:26:26;1007.3;;;6.2;73.9
54439;BME280;40347;53.848;27.498;2023-04-27T02:31:22;1007.3;;;6.3;73.4
54439;BME280;40347;53.848;27.498;2023-04-27T02:36:07;1007.4;;;6.4;73.1
54439;BME280;40347;53.848;27.498;2023-04-27T02:41:12;1007.3;;;6.5;73
54439;BME280;40347;53.848;27.498;2023-04-27T02:46:07;1007.3;;;6.5;72.7
54439;BME280;40347;53.848;27.498;2023-04-27T02:51:19;1007.4;;;6.6;72.6
54439;BME280;40347;53.848;27.498;2023-04-27T02:56:19;1007.4;;;6.7;72.6
54439;BME280;40347;53.848;27.498;2023-04-27T03:01:44;1007.5;;;6.8;72.2
54439;BME280;40347;53.848;27.498;2023-04-27T03:06:06;1007.5;;;6.8;71.4
54439;BME280;40347;53.848;27.498;2023-04-27T03:11:24;1007.6;;;6.6;71.4
54439;BME280;40347;53.848;27.498;2023-04-27T03:16:33;1007.6;;;6.4;71.9
54439;BME280;40347;53.848;27.498;2023-04-27T03:21:19;1007.6;;;6.3;72.5
54439;BME280;40347;53.848;27.498;2023-04-27T03:26:42;1007.6;;;6.4;72.7
54439;BME280;40347;53.848;27.498;2023-04-27T03:31:17;1007.6;;;6.4;72.8
54439;BME280;40347;53.848;27.498;2023-04-27T03:36:18;1007.7;;;6.2;72.9
54439;BME280;40347;53.848;27.498;2023-04-27T03:41:23;1007.8;;;6;73.5
54439;BME280;40347;53.848;27.498;2023-04-27T03:46:07;1007.8;;;5.9;74
54439;BME280;40347;53.848;27.498;2023-04-27T03:51:21;1007.9;;;5.9;74.3
54439;BME280;40347;53.848;27.498;2023-04-27T03:56:29;1008;;;6;74.2
54439;BME280;40347;53.848;27.498;2023-04-27T04:01:19;1007.9;;;6.2;73.9
54439;BME280;40347;53.848;27.498;2023-04-27T04:06:07;1008;;;6.3;73
54439;BME280;40347;53.848;27.498;2023-04-27T04:11:19;1008.1;;;6.4;72.6
54439;BME280;40347;53.848;27.498;2023-04-27T04:16:21;1008.2;;;6.4;72
54439;BME280;40347;53.848;27.498;2023-04-27T04:21:07;1008.2;;;6.4;71.7
54439;BME280;40347;53.848;27.498;2023-04-27T04:26:07;1008.2;;;6.7;71.8
54439;BME280;40347;53.848;27.498;2023-04-27T04:31:19;1008.2;;;6.9;71.1
54439;BME280;40347;53.848;27.498;2023-04-27T04:36:25;1008.2;;;7.1;70.6
54439;BME280;40347;53.848;27.498;2023-04-27T04:41:27;1008.3;;;6.9;70.5
54439;BME280;40347;53.848;27.498;2023-04-27T04:46:21;1008.2;;;6.7;71.3
54439;BME280;40347;53.848;27.498;2023-04-27T04:51:27;1008.3;;;6.8;71.8
54439;BME280;40347;53.848;27.498;2023-04-27T04:56:07;1008.3;;;6.8;70.9
54439;BME280;40347;53.848;27.498;2023-04-27T05:01:07;1008.3;;;6.6;71
54439;BME280;40347;53.848;27.498;2023-04-27T05:06:29;1008.2;;;6.6;71
54439;BME280;40347;53.848;27.498;2023-04-27T05:11:07;1008.2;;;6.7;70.9
54439;BME280;40347;53.848;27.498;2023-04-27T05:16:21;1008.2;;;7.1;70.6
54439;BME280;40347;53.848;27.498;2023-04-27T05:21:12;1008.2;;;7.4;69.8
54439;BME280;40347;53.848;27.498;2023-04-27T05:26:10;1008.2;;;7.5;69.2
54439;BME280;40347;53.848;27.498;2023-04-27T05:31:21;1008.3;;;7.7;69.1
54439;BME280;40347;53.848;27.498;2023-04-27T05:36:07;1008.3;;;7.6;67.2
54439;BME280;40347;53.848;27.498;2023-04-27T05:41:07;1008.3;;;7.5;67.4
54439;BME280;40347;53.848;27.498;2023-04-27T05:46:07;1008.4;;;7.7;66.4
54439;BME280;40347;53.848;27.498;2023-04-27T05:51:29;1008.4;;;7.5;66.1
54439;BME280;40347;53.848;27.498;2023-04-27T05:56:07;1008.4;;;7.5;66.3
54439;BME280;40347;53.848;27.498;2023-04-27T06:01:07;1008.5;;;7.5;65.7
54439;BME280;40347;53.848;27.498;2023-04-27T06:06:29;1008.5;;;8;66.1
54439;BME280;40347;53.848;27.498;2023-04-27T06:11:07;1008.6;;;8.4;64
54439;BME280;40347;53.848;27.498;2023-04-27T06:16:07;1008.6;;;8.6;64.2
54439;BME280;40347;53.848;27.498;2023-04-27T06:21:07;1008.7;;;9.1;63.1
54439;BME280;40347;53.848;27.498;2023-04-27T06:26:19;1008.7;;;9.2;61.8
54439;BME280;40347;53.848;27.498;2023-04-27T06:31:27;1008.8;;;8.8;61
54439;BME280;40347;53.848;27.498;2023-04-27T06:36:19;1008.9;;;9.1;62.1
54439;BME280;40347;53.848;27.498;2023-04-27T06:41:07;1008.9;;;9.6;61.7
54439;BME280;40347;53.848;27.498;2023-04-27T06:46:37;1009;;;9.7;60.6
54439;BME280;40347;53.848;27.498;2023-04-27T06:51:19;1009.1;;;9.8;60.5
54439;BME280;40347;53.848;27.498;2023-04-27T06:56:09;1009.1;;;9.8;59.4
54439;BME280;40347;53.848;27.498;2023-04-27T07:01:07;1009.2;;;10;59.6
54439;BME280;40347;53.848;27.498;2023-04-27T07:06:07;1009.2;;;10.3;59.8
54439;BME280;40347;53.848;27.498;2023-04-27T07:11:13;1009.2;;;10.7;57.6
54439;BME280;40347;53.848;27.498;2023-04-27T07:16:07;1009.2;;;10.6;55.7
54439;BME280;40347;53.848;27.498;2023-04-27T07:21:33;1009.3;;;10.5;55.4
54439;BME280;40347;53.848;27.498;2023-04-27T07:26:07;1009.2;;;10.3;56.2
54439;BME280;40347;53.848;27.498;2023-04-27T07:31:07;1009.3;;;10.1;57.1
54439;BME280;40347;53.848;27.498;2023-04-27T07:36:29;1009.3;;;10.1;57.3
54439;BME280;40347;53.848;27.498;2023-04-27T07:41:13;1009.4;;;10.7;57.6
54439;BME280;40347;53.848;27.498;2023-04-27T07:46:07;1009.4;;;10.9;55.3
54439;BME280;40347;53.848;27.498;2023-04-27T07:51:07;1009.4;;;11.3;55.4
54439;BME280;40347;53.848;27.498;2023-04-27T07:56:07;1009.5;;;11.6;55.1
54439;BME280;40347;53.848;27.498;2023-04-27T08:01:25;1009.5;;;11.8;54.3
54439;BME280;40347;53.848;27.498;2023-04-27T08:06:31;1009.6;;;11.2;53.2
54439;BME280;40347;53.848;27.498;2023-04-27T08:11:21;1009.6;;;11;53.8
54439;BME280;40347;53.848;27.498;2023-04-27T08:16:07;1009.6;;;10.9;53.5
54439;BME280;40347;53.848;27.498;2023-04-27T08:21:25;1009.7;;;10.9;54.5
54439;BME280;40347;53.848;27.498;2023-04-27T08:26:27;1009.8;;;11.1;53.3
54439;BME280;40347;53.848;27.498;2023-04-27T08:31:07;1009.8;;;11.4;53
54439;BME280;40347;53.848;27.498;2023-04-27T08:36:07;1009.9;;;11.5;53.1
54439;BME280;40347;53.848;27.498;2023-04-27T08:41:25;1009.9;;;11.4;53
54439;BME280;40347;53.848;27.498;2023-04-27T08:46:19;1009.9;;;11.8;53.1
54439;BME280;40347;53.848;27.498;2023-04-27T08:51:27;1010;;;12.2;51.2
54439;BME280;40347;53.848;27.498;2023-04-27T08:56:07;1010;;;12;51.2
54439;BME280;40347;53.848;27.498;2023-04-27T09:01:29;1010;;;12;52.8
54439;BME280;40347;53.848;27.498;2023-04-27T09:06:27;1010;;;12.4;51.9
54439;BME280;40347;53.848;27.498;2023-04-27T09:11:31;1010;;;12.6;51.5
54439;BME280;40347;53.848;27.498;2023-04-27T09:16:22;1010;;;12.6;51.1
54439;BME280;40347;53.848;27.498;2023-04-27T09:21:20;1010;;;13;51.1
54439;BME280;40347;53.848;27.498;2023-04-27T09:26:31;1010;;;13.1;50.5
54439;BME280;40347;53.848;27.498;2023-04-27T09:31:07;1010.1;;;13.1;49.6
54439;BME280;40347;53.848;27.498;2023-04-27T09:36:07;1010.2;;;13.2;49.6
54439;BME280;40347;53.848;27.498;2023-04-27T09:41:17;1010.2;;;13.2;50
54439;BME280;40347;53.848;27.498;2023-04-27T09:46:07;1010.2;;;13.2;49.1
54439;BME280;40347;53.848;27.498;2023-04-27T09:51:07;1010.2;;;13.4;50
54439;BME280;40347;53.848;27.498;2023-04-27T09:56:23;1010.3;;;13.3;48.6
54439;BME280;40347;53.848;27.498;2023-04-27T10:01:23;1010.3;;;13.3;48.8
54439;BME280;40347;53.848;27.498;2023-04-27T10:06:26;1010.4;;;13.4;49.8
54439;BME280;40347;53.848;27.498;2023-04-27T10:11:14;1010.4;;;13.5;48.6
54439;BME280;40347;53.848;27.498;2023-04-27T10:16:23;1010.5;;;13.3;48.8
54439;BME280;40347;53.848;27.498;2023-04-27T10:21:08;1010.5;;;13.5;48.1
54439;BME280;40347;53.848;27.498;2023-04-27T10:26:31;1010.5;;;13.7;47.4
54439;BME280;40347;53.848;27.498;2023-04-27T10:31:08;1010.5;;;13.7;47.5
54439;BME280;40347;53.848;27.498;2023-04-27T10:36:17;1010.6;;;13.1;48
54439;BME280;40347;53.848;27.498;2023-04-27T10:41:51;1010.6;;;12.2;49.5
54439;BME280;40347;53.848;27.498;2023-04-27T10:46:07;1010.7;;;11.7;51
54439;BME280;40347;53.848;27.498;2023-04-27T10:51:35;1010.7;;;11.3;51.6
54439;BME280;40347;53.848;27.498;2023-04-27T10:56:07;1010.7;;;10.9;51.9
54439;BME280;40347;53.848;27.498;2023-04-27T11:01:07;1010.7;;;10.9;52.5
54439;BME280;40347;53.848;27.498;2023-04-27T11:06:07;1010.7;;;11;52.7
54439;BME280;40347;53.848;27.498;2023-04-27T11:11:29;1010.7;;;11.2;52.4
54439;BME280;40347;53.848;27.498;2023-04-27T11:16:07;1010.6;;;11.6;51.9
54439;BME280;40347;53.848;27.498;2023-04-27T11:21:15;1010.6;;;12.3;50.7
54439;BME280;40347;53.848;27.498;2023-04-27T11:26:07;1010.5;;;12.6;48.6
54439;BME280;40347;53.848;27.498;2023-04-27T11:31:15;1010.5;;;12.3;47.3
54439;BME280;40347;53.848;27.498;2023-04-27T11:36:15;1010.5;;;12.2;48.2
54439;BME280;40347;53.848;27.498;2023-04-27T11:41:45;1010.4;;;12.6;47.3
54439;BME280;40347;53.848;27.498;2023-04-27T11:46:18;1010.4;;;12.9;46.8
54439;BME280;40347;53.848;27.498;2023-04-27T11:51:19;1010.4;;;13;46.9
54439;BME280;40347;53.848;27.498;2023-04-27T11:56:19;1010.4;;;13.4;44.9
54439;BME280;40347;53.848;27.498;2023-04-27T12:01:19;1010.5;;;13.5;46.1
54439;BME280;40347;53.848;27.498;2023-04-27T12:06:31;1010.5;;;13.5;45.7
54439;BME280;40347;53.848;27.498;2023-04-27T12:11:13;1010.5;;;13.3;46.3
54439;BME280;40347;53.848;27.498;2023-04-27T12:16:07;1010.6;;;13.4;46.7
54439;BME280;40347;53.848;27.498;2023-04-27T12:21:07;1010.6;;;13.6;45.8
54439;BME280;40347;53.848;27.498;2023-04-27T12:26:13;1010.7;;;13.7;46
54439;BME280;40347;53.848;27.498;2023-04-27T12:31:29;1010.7;;;13.9;44.4
54439;BME280;40347;53.848;27.498;2023-04-27T12:36:31;1010.7;;;14.1;44.3
54439;BME280;40347;53.848;27.498;2023-04-27T12:41:07;1010.7;;;13.3;43.8
54439;BME280;40347;53.848;27.498;2023-04-27T12:46:37;1010.8;;;13;43.6
54439;BME280;40347;53.848;27.498;2023-04-27T12:51:31;1010.9;;;13.6;43.7
54439;BME280;40347;53.848;27.498;2023-04-27T12:56:07;1010.8;;;13.8;41.3
54439;BME280;40347;53.848;27.498;2023-04-27T13:01:07;1010.9;;;13.7;41.3
54439;BME280;40347;53.848;27.498;2023-04-27T13:06:07;1010.9;;;13.9;42.2
54439;BME280;40347;53.848;27.498;2023-04-27T13:11:07;1010.9;;;13.8;40.8
54439;BME280;40347;53.848;27.498;2023-04-27T13:16:25;1010.8;;;13.7;41.9
54439;BME280;40347;53.848;27.498;2023-04-27T13:21:07;1010.9;;;13.7;41.6
54439;BME280;40347;53.848;27.498;2023-04-27T13:26:07;1010.9;;;13.4;40.8
54439;BME280;40347;53.848;27.498;2023-04-27T13:31:41;1010.8;;;13.3;40.5
54439;BME280;40347;53.848;27.498;2023-04-27T13:36:15;1010.8;;;13.7;40.4
54439;BME280;40347;53.848;27.498;2023-04-27T13:41:17;1010.7;;;14;39.5
54439;BME280;40347;53.848;27.498;2023-04-27T13:46:19;1010.7;;;14;38.6
54439;BME280;40347;53.848;27.498;2023-04-27T13:51:15;1010.8;;;13.8;38.4
54439;BME280;40347;53.848;27.498;2023-04-27T13:56:15;1010.9;;;13.6;36.9
54439;BME280;40347;53.848;27.498;2023-04-27T14:01:17;1011;;;13.2;38.1
54439;BME280;40347;53.848;27.498;2023-04-27T14:06:07;1011.1;;;13.2;38.9
54439;BME280;40347;53.848;27.498;2023-04-27T14:11:07;1011.2;;;12.5;38.7
54439;BME280;40347;53.848;27.498;2023-04-27T14:16:17;1011.2;;;12.5;40.2
54439;BME280;40347;53.848;27.498;2023-04-27T14:21:15;1011.3;;;12.6;40.5
54439;BME280;40347;53.848;27.498;2023-04-27T14:26:07;1011.4;;;12.4;39
54439;BME280;40347;53.848;27.498;2023-04-27T14:31:19;1011.4;;;12.4;39.9
54439;BME280;40347;53.848;27.498;2023-04-27T14:36:35;1011.4;;;12.7;40.7
54439;BME280;40347;53.848;27.498;2023-04-27T14:41:07;1011.4;;;12.7;40
54439;BME280;40347;53.848;27.498;2023-04-27T14:46:19;1011.5;;;12.1;40.3
54439;BME280;40347;53.848;27.498;2023-04-27T14:51:07;1011.5;;;11.6;40.7
54439;BME280;40347;53.848;27.498;2023-04-27T14:56:29;1011.5;;;11.7;41.7
54439;BME280;40347;53.848;27.498;2023-04-27T15:01:29;1011.5;;;12.2;41
54439;BME280;40347;53.848;27.498;2023-04-27T15:06:31;1011.5;;;12.6;39.2
54439;BME280;40347;53.848;27.498;2023-04-27T15:11:19;1011.5;;;12.8;39.6
54439;BME280;40347;53.848;27.498;2023-04-27T15:16:23;1011.6;;;12.8;39.2
54439;BME280;40347;53.848;27.498;2023-04-27T15:21:29;1011.6;;;12.6;38.4
54439;BME280;40347;53.848;27.498;2023-04-27T15:26:25;1011.6;;;12.2;39
54439;BME280;40347;53.848;27.498;2023-04-27T15:31:15;1011.7;;;11.7;39.2
54439;BME280;40347;53.848;27.498;2023-04-27T15:36:07;1011.7;;;11.7;40.2
54439;BME280;40347;53.848;27.498;2023-04-27T15:41:19;1011.7;;;11.7;39
54439;BME280;40347;53.848;27.498;2023-04-27T15:46:07;1011.8;;;11.5;38.2
54439;BME280;40347;53.848;27.498;2023-04-27T15:51:07;1011.8;;;11.4;39.7
54439;BME280;40347;53.848;27.498;2023-04-27T15:56:19;1011.9;;;11.6;39.7
54439;BME280;40347;53.848;27.498;2023-04-27T16:01:25;1011.9;;;11.6;39.7
54439;BME280;40347;53.848;27.498;2023-04-27T16:06:07;1011.9;;;11.6;38.9
54439;BME280;40347;53.848;27.498;2023-04-27T16:11:07;1012;;;11.6;39.3
54439;BME280;40347;53.848;27.498;2023-04-27T16:16:17;1012;;;11.5;39.8
54439;BME280;40347;53.848;27.498;2023-04-27T16:21:07;1012;;;11.6;39.7
54439;BME280;40347;53.848;27.498;2023-04-27T16:26:19;1012;;;11.4;39
54439;BME280;40347;53.848;27.498;2023-04-27T16:31:07;1012;;;10.9;40.1
54439;BME280;40347;53.848;27.498;2023-04-27T16:36:19;1012.1;;;10.6;40.7
54439;BME280;40347;53.848;27.498;2023-04-27T16:41:19;1012.1;;;10.6;41.4
54439;BME280;40347;53.848;27.498;2023-04-27T16:46:25;1012.1;;;10.6;41.4
54439;BME280;40347;53.848;27.498;2023-04-27T16:51:19;1012.1;;;10.3;41.4
54439;BME280;40347;53.848;27.498;2023-04-27T16:56:27;1012.1;;;10.2;42.1
54439;BME280;40347;53.848;27.498;2023-04-27T17:01:31;1012.1;;;10.1;42.4
54439;BME280;40347;53.848;27.498;2023-04-27T17:06:19;1012.2;;;10;42.9
54439;BME280;40347;53.848;27.498;2023-04-27T17:11:25;1012.2;;;9.9;43
54439;BME280;40347;53.848;27.498;2023-04-27T17:16:17;1012.2;;;9.7;43.6
54439;BME280;40347;53.848;27.498;2023-04-27T17:21:21;1012.3;;;9.6;43.8
54439;BME280;40347;53.848;27.498;2023-04-27T17:26:07;1012.3;;;9.4;44.2
54439;BME280;40347;53.848;27.498;2023-04-27T17:31:31;1012.3;;;9.3;44.4
54439;BME280;40347;53.848;27.498;2023-04-27T17:36:19;1012.3;;;9.2;44.9
54439;BME280;40347;53.848;27.498;2023-04-27T17:41:17;1012.4;;;9.1;45.3
54439;BME280;40347;53.848;27.498;2023-04-27T17:46:17;1012.5;;;8.9;45.6
54439;BME280;40347;53.848;27.498;2023-04-27T17:51:19;1012.6;;;8.7;45.6
54439;BME280;40347;53.848;27.498;2023-04-27T17:56:07;1012.6;;;8.7;45.9
54439;BME280;40347;53.848;27.498;2023-04-27T18:01:21;1012.7;;;8.6;46
54439;BME280;40347;53.848;27.498;2023-04-27T18:06:07;1012.8;;;8.5;46.3
54439;BME280;40347;53.848;27.498;2023-04-27T18:11:07;1012.8;;;8.4;47
54439;BME280;40347;53.848;27.498;2023-04-27T18:16:07;1012.9;;;8.2;47.2
54439;BME280;40347;53.848;27.498;2023-04-27T18:21:33;1012.9;;;8.1;47.3
54439;BME280;40347;53.848;27.498;2023-04-27T18:26:17;1013;;;8.1;47.6
54439;BME280;40347;53.848;27.498;2023-04-27T18:31:27;1013;;;8;47.5
54439;BME280;40347;53.848;27.498;2023-04-27T18:36:13;1013;;;8;48
54439;BME280;40347;53.848;27.498;2023-04-27T18:41:07;1013;;;7.9;48.4
54439;BME280;40347;53.848;27.498;2023-04-27T18:46:21;1013;;;7.8;48.3
54439;BME280;40347;53.848;27.498;2023-04-27T18:51:13;1013.1;;;7.8;48.3
54439;BME280;40347;53.848;27.498;2023-04-27T18:56:31;1013;;;7.8;48.3
54439;BME280;40347;53.848;27.498;2023-04-27T19:01:35;1013.1;;;7.8;48.2
54439;BME280;40347;53.848;27.498;2023-04-27T19:06:27;1013;;;7.6;48.9
54439;BME280;40347;53.848;27.498;2023-04-27T19:11:33;1013;;;7.6;48.9
54439;BME280;40347;53.848;27.498;2023-04-27T19:16:07;1013;;;7.6;49.1
54439;BME280;40347;53.848;27.498;2023-04-27T19:21:17;1013;;;7.5;49.5
54439;BME280;40347;53.848;27.498;2023-04-27T19:26:21;1013;;;7.5;49.4
54439;BME280;40347;53.848;27.498;2023-04-27T19:31:19;1013;;;7.4;49.8
54439;BME280;40347;53.848;27.498;2023-04-27T19:36:07;1013.1;;;7.3;49.8
54439;BME280;40347;53.848;27.498;2023-04-27T19:41:33;1013.1;;;7.3;50.1
54439;BME280;40347;53.848;27.498;2023-04-27T19:46:07;1013.2;;;7.3;50.2
54439;BME280;40347;53.848;27.498;2023-04-27T19:51:17;1013.3;;;7.2;50.6
54439;BME280;40347;53.848;27.498;2023-04-27T19:56:07;1013.3;;;7.2;50.8
54439;BME280;40347;53.848;27.498;2023-04-27T20:01:25;1013.3;;;7.1;50.8
54439;BME280;40347;53.848;27.498;2023-04-27T20:06:17;1013.3;;;7;51
54439;BME280;40347;53.848;27.498;2023-04-27T20:11:07;1013.3;;;7;51
54439;BME280;40347;53.848;27.498;2023-04-27T20:16:07;1013.3;;;6.9;51.3
54439;BME280;40347;53.848;27.498;2023-04-27T20:21:17;1013.3;;;6.9;51.3
54439;BME280;40347;53.848;27.498;2023-04-27T20:26:19;1013.3;;;6.9;51.4
54439;BME280;40347;53.848;27.498;2023-04-27T20:31:23;1013.4;;;6.8;51.7
54439;BME280;40347;53.848;27.498;2023-04-27T20:36:19;1013.4;;;6.8;51.9
54439;BME280;40347;53.848;27.498;2023-04-27T20:41:27;1013.5;;;6.7;52.2
54439;BME280;40347;53.848;27.498;2023-04-27T20:46:39;1013.5;;;6.7;52.4
54439;BME280;40347;53.848;27.498;2023-04-27T20:51:07;1013.5;;;6.6;52.7
54439;BME280;40347;53.848;27.498;2023-04-27T20:56:07;1013.6;;;6.5;52.8
54439;BME280;40347;53.848;27.498;2023-04-27T21:01:23;1013.7;;;6.5;53.1
54439;BME280;40347;53.848;27.498;2023-04-27T21:06:21;1013.7;;;6.5;53.2
54439;BME280;40347;53.848;27.498;2023-04-27T21:11:47;1013.7;;;6.3;54.4
54439;BME280;40347;53.848;27.498;2023-04-27T21:16:17;1013.7;;;6.4;53.8
54439;BME280;40347;53.848;27.498;2023-04-27T21:21:21;1013.8;;;6.3;54.3
54439;BME280;40347;53.848;27.498;2023-04-27T21:26:07;1013.8;;;6.2;54.5
54439;BME280;40347;53.848;27.498;2023-04-27T21:31:31;1013.8;;;6.2;54.6
54439;BME280;40347;53.848;27.498;2023-04-27T21:36:07;1013.8;;;6.2;54.7
54439;BME280;40347;53.848;27.498;2023-04-27T21:41:23;1013.8;;;6.2;55.1
54439;BME280;40347;53.848;27.498;2023-04-27T21:46:17;1013.8;;;6.1;55.1
54439;BME280;40347;53.848;27.498;2023-04-27T21:51:07;1013.9;;;6.1;55.6
54439;BME280;40347;53.848;27.498;2023-04-27T21:56:13;1013.9;;;5.9;56
54439;BME280;40347;53.848;27.498;2023-04-27T22:01:17;1013.9;;;5.9;55.8
54439;BME280;40347;53.848;27.498;2023-04-27T22:06:19;1013.9;;;5.9;56.2
54439;BME280;40347;53.848;27.498;2023-04-27T22:11:13;1014;;;5.8;57.2
54439;BME280;40347;53.848;27.498;2023-04-27T22:16:07;1014;;;5.8;57
54439;BME280;40347;53.848;27.498;2023-04-27T22:21:31;1014;;;5.7;57.9
54439;BME280;40347;53.848;27.498;2023-04-27T22:26:13;1014;;;5.6;57.9
54439;BME280;40347;53.848;27.498;2023-04-27T22:31:21;1014;;;5.6;57.9
54439;BME280;40347;53.848;27.498;2023-04-27T22:36:25;1014;;;5.5;59.2
54439;BME280;40347;53.848;27.498;2023-04-27T22:41:31;1014;;;5.4;59.1
54439;BME280;40347;53.848;27.498;2023-04-27T22:46:31;1014.1;;;5.4;58.9
54439;BME280;40347;53.848;27.498;2023-04-27T22:51:35;1014.1;;;5.4;58.8
54439;BME280;40347;53.848;27.498;2023-04-27T22:56:25;1014.1;;;5.4;59.3
54439;BME280;40347;53.848;27.498;2023-04-27T23:01:21;1014.1;;;5.5;58.9
54439;BME280;40347;53.848;27.498;2023-04-27T23:06:11;1014.1;;;5.5;59.2
54439;BME280;40347;53.848;27.498;2023-04-27T23:11:07;1014.1;;;5.5;59.3
54439;BME280;40347;53.848;27.498;2023-04-27T23:16:07;1014.1;;;5.4;59.2
54439;BME280;40347;53.848;27.498;2023-04-27T23:21:13;1014.2;;;5.4;59.7
54439;BME280;40347;53.848;27.498;2023-04-27T23:26:11;1014.2;;;5.4;59.4
54439;BME280;40347;53.848;27.498;2023-04-27T23:31:07;1014.2;;;5.4;59.3
54439;BME280;40347;53.848;27.498;2023-04-27T23:36:07;1014.3;;;5.3;60.4
54439;BME280;40347;53.848;27.498;2023-04-27T23:41:29;1014.3;;;5.2;60.6
54439;BME280;40347;53.848;27.498;2023-04-27T23:46:19;1014.3;;;5.2;60.1
54439;BME280;40347;53.848;27.498;2023-04-27T23:51:21;1014.3;;;5.2;60.5
54439;BME280;40347;53.848;27.498;2023-04-27T23:56:13;1014.3;;;5.2;60.4
